createdAt,value
2017-05-28T00:00:59.180Z,938.57
2017-05-28T00:02:11.107Z,938.57
2017-05-28T00:03:23.031Z,938.6
2017-05-28T00:04:35.447Z,938.61
2017-05-28T00:05:47.867Z,938.64
2017-05-28T00:07:00.836Z,938.64
2017-05-28T00:08:13.454Z,938.64
2017-05-28T00:09:26.361Z,938.63
2017-05-28T00:10:38.783Z,938.65
2017-05-28T00:11:51.687Z,938.64
2017-05-28T00:13:04.843Z,938.66
2017-05-28T00:14:17.747Z,938.68
2017-05-28T00:15:30.647Z,938.7
2017-05-28T00:16:43.620Z,938.75
2017-05-28T00:17:56.515Z,938.77
2017-05-28T00:19:08.927Z,938.81
2017-05-28T00:20:21.842Z,938.86
2017-05-28T00:21:34.256Z,938.87
2017-05-28T00:22:47.172Z,938.95
2017-05-28T00:24:00.277Z,938.96
2017-05-28T00:25:12.691Z,938.94
2017-05-28T00:26:25.110Z,938.96
2017-05-28T00:27:37.032Z,938.99
2017-05-28T00:28:49.444Z,938.98
2017-05-28T00:30:02.356Z,939.02
2017-05-28T00:31:14.772Z,938.98
2017-05-28T00:32:27.677Z,938.98
2017-05-28T00:33:40.089Z,939
2017-05-28T00:34:52.995Z,939.06
2017-05-28T00:36:05.896Z,939.04
2017-05-28T00:37:18.798Z,939.07
2017-05-28T00:38:31.702Z,939.05
2017-05-28T00:39:44.118Z,939.15
2017-05-28T00:40:57.231Z,939.12
2017-05-28T00:42:09.651Z,939.14
2017-05-28T00:43:21.572Z,939.17
2017-05-28T00:44:33.988Z,939.15
2017-05-28T00:45:46.900Z,939.12
2017-05-28T00:46:59.803Z,939.23
2017-05-28T00:48:12.209Z,939.19
2017-05-28T00:49:24.624Z,939.23
2017-05-28T00:50:37.039Z,939.27
2017-05-28T00:51:49.449Z,939.33
2017-05-28T00:53:02.352Z,939.33
2017-05-28T00:54:15.266Z,939.33
2017-05-28T00:55:28.172Z,939.35
2017-05-28T00:56:41.284Z,939.37
2017-05-28T00:57:53.207Z,939.35
2017-05-28T00:59:06.117Z,939.34
2017-05-28T01:00:19.020Z,939.33
2017-05-28T01:01:31.924Z,939.36
2017-05-28T01:02:44.824Z,939.35
2017-05-28T01:03:57.243Z,939.35
2017-05-28T01:05:10.152Z,939.36
2017-05-28T01:06:23.075Z,939.32
2017-05-28T01:07:36.011Z,939.32
2017-05-28T01:08:48.921Z,939.33
2017-05-28T01:10:00.844Z,939.33
2017-05-28T01:11:13.258Z,939.26
2017-05-28T01:12:26.170Z,939.3
2017-05-28T01:13:39.283Z,939.25
2017-05-28T01:14:51.702Z,939.27
2017-05-28T01:16:03.626Z,939.3
2017-05-28T01:17:16.523Z,939.31
2017-05-28T01:18:28.449Z,939.35
2017-05-28T01:19:41.356Z,939.36
2017-05-28T01:20:54.263Z,939.4
2017-05-28T01:22:07.170Z,939.38
2017-05-28T01:23:20.083Z,939.37
2017-05-28T01:24:33.017Z,939.39
2017-05-28T01:25:45.943Z,939.37
2017-05-28T01:26:58.865Z,939.39
2017-05-28T01:28:11.352Z,939.42
2017-05-28T01:29:23.782Z,939.39
2017-05-28T01:30:36.719Z,939.39
2017-05-28T01:31:49.780Z,939.37
2017-05-28T01:33:02.351Z,939.37
2017-05-28T01:34:13.922Z,939.4
2017-05-28T01:35:27.202Z,939.42
2017-05-28T01:36:40.265Z,939.42
2017-05-28T01:37:52.828Z,939.45
2017-05-28T01:39:05.891Z,939.41
2017-05-28T01:40:18.953Z,939.49
2017-05-28T01:41:32.011Z,939.49
2017-05-28T01:42:44.615Z,939.49
2017-05-28T01:43:57.174Z,939.48
2017-05-28T01:45:08.733Z,939.46
2017-05-28T01:46:21.807Z,939.46
2017-05-28T01:47:33.869Z,939.41
2017-05-28T01:48:46.933Z,939.42
2017-05-28T01:49:59.502Z,939.42
2017-05-28T01:51:12.760Z,939.42
2017-05-28T01:52:25.318Z,939.42
2017-05-28T01:53:37.882Z,939.41
2017-05-28T01:54:50.946Z,939.42
2017-05-28T01:56:03.508Z,939.39
2017-05-28T01:57:16.069Z,939.44
2017-05-28T01:58:28.638Z,939.4
2017-05-28T01:59:41.696Z,939.43
2017-05-28T02:00:54.259Z,939.41
2017-05-28T02:02:07.320Z,939.42
2017-05-28T02:03:19.883Z,939.4
2017-05-28T02:04:32.455Z,939.35
2017-05-28T02:05:45.516Z,939.36
2017-05-28T02:06:58.080Z,939.36
2017-05-28T02:08:11.350Z,939.33
2017-05-28T02:09:23.911Z,939.31
2017-05-28T02:10:36.975Z,939.3
2017-05-28T02:11:49.537Z,939.29
2017-05-28T02:13:02.795Z,939.25
2017-05-28T02:14:15.856Z,939.23
2017-05-28T02:15:28.922Z,939.19
2017-05-28T02:16:41.984Z,939.22
2017-05-28T02:17:55.050Z,939.17
2017-05-28T02:19:07.612Z,939.2
2017-05-28T02:20:19.672Z,939.15
2017-05-28T02:21:32.733Z,939.15
2017-05-28T02:22:45.793Z,939.14
2017-05-28T02:23:59.104Z,939.18
2017-05-28T02:25:11.165Z,939.19
2017-05-28T02:26:23.223Z,939.15
2017-05-28T02:27:36.274Z,939.2
2017-05-28T02:28:49.198Z,939.17
2017-05-28T02:30:02.127Z,939.18
2017-05-28T02:31:15.050Z,939.19
2017-05-28T02:32:27.971Z,939.23
2017-05-28T02:33:40.893Z,939.2
2017-05-28T02:34:53.814Z,939.18
2017-05-28T02:36:06.736Z,939.21
2017-05-28T02:37:19.166Z,939.23
2017-05-28T02:38:31.597Z,939.18
2017-05-28T02:39:44.515Z,939.19
2017-05-28T02:40:57.146Z,939.14
2017-05-28T02:42:09.575Z,939.14
2017-05-28T02:43:22.004Z,939.14
2017-05-28T02:44:34.932Z,939.18
2017-05-28T02:45:48.049Z,939.17
2017-05-28T02:47:00.498Z,939.16
2017-05-28T02:48:12.925Z,939.16
2017-05-28T02:49:24.387Z,939.18
2017-05-28T02:50:36.820Z,939.19
2017-05-28T02:51:48.959Z,939.19
2017-05-28T02:53:01.385Z,939.21
2017-05-28T02:54:14.292Z,939.21
2017-05-28T02:55:27.210Z,939.26
2017-05-28T02:56:40.116Z,939.24
2017-05-28T02:57:52.529Z,939.23
2017-05-28T02:59:05.428Z,939.23
2017-05-28T03:00:17.842Z,939.28
2017-05-28T03:01:30.258Z,939.24
2017-05-28T03:02:43.366Z,939.28
2017-05-28T03:03:55.784Z,939.3
2017-05-28T03:05:08.274Z,939.26
2017-05-28T03:06:20.821Z,939.22
2017-05-28T03:07:33.812Z,939.25
2017-05-28T03:08:45.309Z,939.25
2017-05-28T03:09:57.801Z,939.24
2017-05-28T03:11:10.291Z,939.22
2017-05-28T03:12:23.277Z,939.24
2017-05-28T03:13:35.971Z,939.23
2017-05-28T03:14:48.462Z,939.24
2017-05-28T03:16:00.457Z,939.2
2017-05-28T03:17:12.942Z,939.19
2017-05-28T03:18:25.934Z,939.18
2017-05-28T03:19:38.918Z,939.16
2017-05-28T03:20:51.402Z,939.14
2017-05-28T03:22:03.399Z,939.17
2017-05-28T03:23:15.395Z,939.22
2017-05-28T03:24:27.885Z,939.19
2017-05-28T03:25:40.378Z,939.17
2017-05-28T03:26:53.361Z,939.2
2017-05-28T03:28:06.345Z,939.17
2017-05-28T03:29:18.539Z,939.14
2017-05-28T03:30:31.037Z,939.13
2017-05-28T03:31:43.032Z,939.09
2017-05-28T03:32:56.019Z,939.08
2017-05-28T03:34:08.515Z,939.07
2017-05-28T03:35:21.498Z,939.02
2017-05-28T03:36:34.479Z,939
2017-05-28T03:37:47.448Z,938.99
2017-05-28T03:38:59.827Z,939.02
2017-05-28T03:40:12.400Z,939.01
2017-05-28T03:41:25.181Z,938.98
2017-05-28T03:42:37.962Z,938.98
2017-05-28T03:43:50.749Z,938.99
2017-05-28T03:45:03.529Z,938.95
2017-05-28T03:46:16.509Z,938.95
2017-05-28T03:47:28.810Z,938.96
2017-05-28T03:48:41.592Z,938.95
2017-05-28T03:49:54.374Z,938.98
2017-05-28T03:51:06.195Z,938.97
2017-05-28T03:52:18.983Z,938.97
2017-05-28T03:53:31.768Z,938.97
2017-05-28T03:54:44.550Z,938.94
2017-05-28T03:55:57.386Z,938.94
2017-05-28T03:57:10.171Z,938.94
2017-05-28T03:58:22.472Z,938.92
2017-05-28T03:59:34.299Z,938.9
2017-05-28T04:00:47.083Z,938.86
2017-05-28T04:01:59.388Z,938.84
2017-05-28T04:03:12.171Z,938.83
2017-05-28T04:04:24.008Z,938.76
2017-05-28T04:05:36.791Z,938.75
2017-05-28T04:06:48.613Z,938.75
2017-05-28T04:08:01.593Z,938.74
2017-05-28T04:09:13.898Z,938.73
2017-05-28T04:10:26.214Z,938.69
2017-05-28T04:11:38.516Z,938.7
2017-05-28T04:12:51.507Z,938.66
2017-05-28T04:14:03.808Z,938.63
2017-05-28T04:15:16.593Z,938.61
2017-05-28T04:16:29.375Z,938.59
2017-05-28T04:17:42.158Z,938.56
2017-05-28T04:18:54.465Z,938.58
2017-05-28T04:20:07.250Z,938.56
2017-05-28T04:21:19.552Z,938.5
2017-05-28T04:22:32.346Z,938.51
2017-05-28T04:23:44.648Z,938.49
2017-05-28T04:24:57.436Z,938.48
2017-05-28T04:26:10.221Z,938.46
2017-05-28T04:27:22.041Z,938.46
2017-05-28T04:28:34.344Z,938.43
2017-05-28T04:29:47.340Z,938.43
2017-05-28T04:30:59.166Z,938.37
2017-05-28T04:32:11.949Z,938.37
2017-05-28T04:33:24.744Z,938.32
2017-05-28T04:34:36.587Z,938.29
2017-05-28T04:35:48.887Z,938.33
2017-05-28T04:37:01.671Z,938.3
2017-05-28T04:38:13.491Z,938.31
2017-05-28T04:39:26.303Z,938.29
2017-05-28T04:40:39.093Z,938.31
2017-05-28T04:41:51.399Z,938.35
2017-05-28T04:43:02.741Z,938.43
2017-05-28T04:44:15.531Z,938.51
2017-05-28T04:45:27.848Z,938.59
2017-05-28T04:46:40.629Z,938.6
2017-05-28T04:47:53.414Z,938.57
2017-05-28T04:49:06.203Z,938.59
2017-05-28T04:50:19.000Z,938.54
2017-05-28T04:51:31.500Z,938.59
2017-05-28T04:52:43.802Z,938.57
2017-05-28T04:53:56.589Z,938.55
2017-05-28T04:55:09.383Z,938.57
2017-05-28T04:56:21.689Z,938.55
2017-05-28T04:57:33.510Z,938.54
2017-05-28T04:58:46.300Z,938.51
2017-05-28T04:59:59.090Z,938.53
2017-05-28T05:01:11.401Z,938.49
2017-05-28T05:02:23.910Z,938.47
2017-05-28T05:03:36.222Z,938.45
2017-05-28T05:04:49.022Z,938.43
2017-05-28T05:06:00.854Z,938.43
2017-05-28T05:07:13.173Z,938.36
2017-05-28T05:08:26.073Z,938.31
2017-05-28T05:09:38.972Z,938.28
2017-05-28T05:10:51.881Z,938.21
2017-05-28T05:12:04.287Z,938.22
2017-05-28T05:13:17.199Z,938.23
2017-05-28T05:14:30.100Z,938.2
2017-05-28T05:15:43.008Z,938.19
2017-05-28T05:16:55.417Z,938.26
2017-05-28T05:18:08.028Z,938.29
2017-05-28T05:19:19.947Z,938.23
2017-05-28T05:20:32.852Z,938.19
2017-05-28T05:21:45.263Z,938.13
2017-05-28T05:22:57.683Z,938.09
2017-05-28T05:24:10.094Z,938.04
2017-05-28T05:25:22.016Z,938.03
2017-05-28T05:26:34.426Z,938.02
2017-05-28T05:27:46.837Z,938.01
2017-05-28T05:28:59.464Z,938.06
2017-05-28T05:30:11.386Z,938.15
2017-05-28T05:31:23.799Z,938.17
2017-05-28T05:32:36.702Z,938.2
2017-05-28T05:33:49.604Z,938.2
2017-05-28T05:35:02.229Z,938.22
2017-05-28T05:36:15.128Z,938.18
2017-05-28T05:37:27.543Z,938.14
2017-05-28T05:38:40.442Z,938.09
2017-05-28T05:39:53.558Z,938.11
2017-05-28T05:41:06.458Z,938.11
2017-05-28T05:42:18.869Z,938.11
2017-05-28T05:43:30.791Z,938.09
2017-05-28T05:44:43.696Z,938.1
2017-05-28T05:45:56.610Z,938.1
2017-05-28T05:47:09.510Z,938.06
2017-05-28T05:48:21.923Z,938.03
2017-05-28T05:49:34.834Z,938
2017-05-28T05:50:47.736Z,938
2017-05-28T05:52:00.642Z,938.03
2017-05-28T05:53:13.019Z,938.06
2017-05-28T05:54:25.802Z,938.1
2017-05-28T05:55:38.584Z,938.12
2017-05-28T05:56:51.082Z,938.17
2017-05-28T05:58:03.379Z,938.17
2017-05-28T05:59:15.687Z,938.15
2017-05-28T06:00:27.505Z,938.15
2017-05-28T06:01:40.285Z,938.13
2017-05-28T06:02:53.074Z,938.05
2017-05-28T06:04:05.858Z,938.1
2017-05-28T06:05:18.160Z,938.07
2017-05-28T06:06:30.937Z,938.06
2017-05-28T06:07:42.759Z,938.07
2017-05-28T06:08:55.058Z,938.04
2017-05-28T06:10:07.841Z,938.01
2017-05-28T06:11:20.632Z,938
2017-05-28T06:12:33.613Z,938.05
2017-05-28T06:13:45.914Z,938.05
2017-05-28T06:14:58.695Z,938.05
2017-05-28T06:16:10.999Z,938.03
2017-05-28T06:17:23.303Z,938.04
2017-05-28T06:18:36.091Z,938.03
2017-05-28T06:19:48.933Z,938.06
2017-05-28T06:21:01.723Z,938.04
2017-05-28T06:22:14.505Z,938.05
2017-05-28T06:23:27.500Z,938.06
2017-05-28T06:24:39.321Z,938.07
2017-05-28T06:25:51.638Z,938.11
2017-05-28T06:27:04.419Z,938.08
2017-05-28T06:28:16.719Z,938.06
2017-05-28T06:29:29.517Z,938.02
2017-05-28T06:30:42.299Z,938
2017-05-28T06:31:55.086Z,937.98
2017-05-28T06:33:07.383Z,937.98
2017-05-28T06:34:20.369Z,938
2017-05-28T06:35:33.165Z,938.02
2017-05-28T06:36:44.985Z,937.99
2017-05-28T06:37:57.781Z,937.96
2017-05-28T06:39:10.683Z,937.95
2017-05-28T06:40:23.786Z,937.93
2017-05-28T06:41:36.679Z,937.92
2017-05-28T06:42:49.091Z,937.95
2017-05-28T06:44:01.505Z,937.98
2017-05-28T06:45:14.419Z,938
2017-05-28T06:46:26.825Z,938.06
2017-05-28T06:47:39.727Z,938.02
2017-05-28T06:48:52.624Z,937.95
2017-05-28T06:50:05.035Z,937.96
2017-05-28T06:51:17.156Z,937.91
2017-05-28T06:52:29.569Z,937.9
2017-05-28T06:53:42.470Z,937.92
2017-05-28T06:54:55.371Z,937.93
2017-05-28T06:56:07.551Z,937.94
2017-05-28T06:57:19.966Z,937.92
2017-05-28T06:58:32.871Z,937.91
2017-05-28T06:59:45.779Z,937.93
2017-05-28T07:00:58.680Z,937.94
2017-05-28T07:02:11.299Z,937.97
2017-05-28T07:03:24.219Z,937.96
2017-05-28T07:04:37.115Z,937.95
2017-05-28T07:05:49.042Z,937.97
2017-05-28T07:07:01.942Z,937.98
2017-05-28T07:08:13.868Z,937.99
2017-05-28T07:09:26.282Z,937.99
2017-05-28T07:10:39.189Z,937.98
2017-05-28T07:11:52.090Z,937.95
2017-05-28T07:13:05.003Z,937.95
2017-05-28T07:14:17.420Z,937.93
2017-05-28T07:15:30.323Z,937.95
2017-05-28T07:16:43.231Z,937.95
2017-05-28T07:17:55.847Z,937.91
2017-05-28T07:19:08.270Z,937.9
2017-05-28T07:20:21.174Z,937.87
2017-05-28T07:21:33.093Z,937.85
2017-05-28T07:22:45.993Z,937.86
2017-05-28T07:23:59.092Z,937.89
2017-05-28T07:25:11.506Z,937.86
2017-05-28T07:26:24.410Z,937.83
2017-05-28T07:27:37.311Z,937.86
2017-05-28T07:28:50.225Z,937.85
2017-05-28T07:30:02.637Z,937.88
2017-05-28T07:31:15.538Z,937.88
2017-05-28T07:32:28.433Z,937.9
2017-05-28T07:33:40.355Z,937.91
2017-05-28T07:34:53.461Z,937.88
2017-05-28T07:36:06.371Z,937.95
2017-05-28T07:37:19.270Z,937.9
2017-05-28T07:38:32.169Z,937.89
2017-05-28T07:39:44.303Z,937.9
2017-05-28T07:40:57.203Z,937.84
2017-05-28T07:42:09.123Z,937.8
2017-05-28T07:43:22.033Z,937.82
2017-05-28T07:44:34.448Z,937.78
2017-05-28T07:45:46.866Z,937.79
2017-05-28T07:46:59.278Z,937.78
2017-05-28T07:48:11.202Z,937.76
2017-05-28T07:49:23.613Z,937.72
2017-05-28T07:50:36.513Z,937.71
2017-05-28T07:51:49.410Z,937.7
2017-05-28T07:53:02.318Z,937.68
2017-05-28T07:54:14.733Z,937.68
2017-05-28T07:55:27.700Z,937.68
2017-05-28T07:56:40.799Z,937.67
2017-05-28T07:57:52.229Z,937.69
2017-05-28T07:59:05.138Z,937.68
2017-05-28T08:00:17.550Z,937.74
2017-05-28T08:01:29.684Z,937.78
2017-05-28T08:02:42.589Z,937.83
2017-05-28T08:03:55.494Z,937.84
2017-05-28T08:05:06.995Z,937.87
2017-05-28T08:06:19.902Z,937.9
2017-05-28T08:07:32.997Z,937.97
2017-05-28T08:08:45.898Z,937.96
2017-05-28T08:09:57.822Z,937.99
2017-05-28T08:11:10.724Z,937.99
2017-05-28T08:12:22.645Z,938
2017-05-28T08:13:35.061Z,937.97
2017-05-28T08:14:47.476Z,937.99
2017-05-28T08:16:00.379Z,937.97
2017-05-28T08:17:12.791Z,937.99
2017-05-28T08:18:24.710Z,937.97
2017-05-28T08:19:37.607Z,937.95
2017-05-28T08:20:50.020Z,937.95
2017-05-28T08:22:02.919Z,937.97
2017-05-28T08:23:15.826Z,937.95
2017-05-28T08:24:28.235Z,937.97
2017-05-28T08:25:41.136Z,937.97
2017-05-28T08:26:53.543Z,937.96
2017-05-28T08:28:06.450Z,937.96
2017-05-28T08:29:18.591Z,938.01
2017-05-28T08:30:31.546Z,938.09
2017-05-28T08:31:44.034Z,938.1
2017-05-28T08:32:57.021Z,938.14
2017-05-28T08:34:10.011Z,938.16
2017-05-28T08:35:22.998Z,938.2
2017-05-28T08:36:35.487Z,938.24
2017-05-28T08:37:48.468Z,938.25
2017-05-28T08:39:01.453Z,938.34
2017-05-28T08:40:14.144Z,938.31
2017-05-28T08:41:27.139Z,938.34
2017-05-28T08:42:40.122Z,938.39
2017-05-28T08:43:53.115Z,938.4
2017-05-28T08:45:06.104Z,938.42
2017-05-28T08:46:19.085Z,938.43
2017-05-28T08:47:31.573Z,938.45
2017-05-28T08:48:44.558Z,938.51
2017-05-28T08:49:57.545Z,938.44
2017-05-28T08:51:10.233Z,938.48
2017-05-28T08:52:22.726Z,938.46
2017-05-28T08:53:35.724Z,938.45
2017-05-28T08:54:48.731Z,938.47
2017-05-28T08:56:01.433Z,938.44
2017-05-28T08:57:14.432Z,938.44
2017-05-28T08:58:27.428Z,938.46
2017-05-28T08:59:39.934Z,938.45
2017-05-28T09:00:52.438Z,938.49
2017-05-28T09:02:05.653Z,938.5
2017-05-28T09:03:18.158Z,938.52
2017-05-28T09:04:31.156Z,938.53
2017-05-28T09:05:44.159Z,938.56
2017-05-28T09:06:56.676Z,938.54
2017-05-28T09:08:09.180Z,938.58
2017-05-28T09:09:21.693Z,938.55
2017-05-28T09:10:34.198Z,938.6
2017-05-28T09:11:47.199Z,938.61
2017-05-28T09:13:00.400Z,938.63
2017-05-28T09:14:12.909Z,938.65
2017-05-28T09:15:25.912Z,938.66
2017-05-28T09:16:38.908Z,938.65
2017-05-28T09:17:51.612Z,938.71
2017-05-28T09:19:04.609Z,938.71
2017-05-28T09:20:17.128Z,938.8
2017-05-28T09:21:30.131Z,938.8
2017-05-28T09:22:42.632Z,938.85
2017-05-28T09:23:55.354Z,938.83
2017-05-28T09:25:08.360Z,938.88
2017-05-28T09:26:20.370Z,938.88
2017-05-28T09:27:33.375Z,938.83
2017-05-28T09:28:46.374Z,938.85
2017-05-28T09:29:59.452Z,938.9
2017-05-28T09:31:11.957Z,938.9
2017-05-28T09:32:24.457Z,938.91
2017-05-28T09:33:36.967Z,938.94
2017-05-28T09:34:49.675Z,938.91
2017-05-28T09:36:02.724Z,938.88
2017-05-28T09:37:14.714Z,938.86
2017-05-28T09:38:27.576Z,938.85
2017-05-28T09:39:40.446Z,938.87
2017-05-28T09:40:53.313Z,938.83
2017-05-28T09:42:06.178Z,938.81
2017-05-28T09:43:18.553Z,938.8
2017-05-28T09:44:31.334Z,938.81
2017-05-28T09:45:43.838Z,938.79
2017-05-28T09:46:56.140Z,938.77
2017-05-28T09:48:08.925Z,938.78
2017-05-28T09:49:20.744Z,938.75
2017-05-28T09:50:33.526Z,938.76
2017-05-28T09:51:45.821Z,938.8
2017-05-28T09:52:58.126Z,938.75
2017-05-28T09:54:10.424Z,938.77
2017-05-28T09:55:22.728Z,938.76
2017-05-28T09:56:35.718Z,938.76
2017-05-28T09:57:48.499Z,938.8
2017-05-28T09:59:01.281Z,938.84
2017-05-28T10:00:14.058Z,938.92
2017-05-28T10:01:26.851Z,938.97
2017-05-28T10:02:39.632Z,939
2017-05-28T10:03:51.996Z,939
2017-05-28T10:05:04.298Z,939.07
2017-05-28T10:06:17.079Z,939.08
2017-05-28T10:07:29.581Z,939.07
2017-05-28T10:08:42.374Z,939.09
2017-05-28T10:09:54.676Z,939.1
2017-05-28T10:11:06.981Z,939.13
2017-05-28T10:12:19.766Z,939.16
2017-05-28T10:13:32.554Z,939.14
2017-05-28T10:14:45.343Z,939.13
2017-05-28T10:15:58.127Z,939.11
2017-05-28T10:17:10.433Z,939.08
2017-05-28T10:18:23.472Z,939.11
2017-05-28T10:19:36.266Z,939.17
2017-05-28T10:20:48.568Z,939.16
2017-05-28T10:22:01.347Z,939.18
2017-05-28T10:23:13.368Z,939.16
2017-05-28T10:24:25.682Z,939.14
2017-05-28T10:25:38.466Z,939.12
2017-05-28T10:26:50.763Z,939.12
2017-05-28T10:28:03.067Z,939.14
2017-05-28T10:29:15.858Z,939.11
2017-05-28T10:30:28.161Z,939.12
2017-05-28T10:31:40.942Z,939.12
2017-05-28T10:32:53.723Z,939.11
2017-05-28T10:34:06.705Z,939.12
2017-05-28T10:35:18.525Z,939.14
2017-05-28T10:36:30.824Z,939.15
2017-05-28T10:37:42.645Z,939.15
2017-05-28T10:38:54.464Z,939.18
2017-05-28T10:40:07.457Z,939.19
2017-05-28T10:41:19.282Z,939.18
2017-05-28T10:42:31.103Z,939.2
2017-05-28T10:43:43.894Z,939.19
2017-05-28T10:44:56.193Z,939.22
2017-05-28T10:46:08.212Z,939.22
2017-05-28T10:47:20.030Z,939.24
2017-05-28T10:48:32.335Z,939.24
2017-05-28T10:49:45.121Z,939.24
2017-05-28T10:50:56.943Z,939.24
2017-05-28T10:52:09.441Z,939.26
2017-05-28T10:53:22.224Z,939.28
2017-05-28T10:54:34.046Z,939.28
2017-05-28T10:55:46.827Z,939.3
2017-05-28T10:56:59.610Z,939.31
2017-05-28T10:58:12.393Z,939.3
2017-05-28T10:59:25.183Z,939.32
2017-05-28T11:00:37.970Z,939.33
2017-05-28T11:01:50.755Z,939.32
2017-05-28T11:03:03.259Z,939.32
2017-05-28T11:04:15.078Z,939.31
2017-05-28T11:05:27.386Z,939.29
2017-05-28T11:06:40.169Z,939.3
2017-05-28T11:07:52.973Z,939.33
2017-05-28T11:09:05.877Z,939.3
2017-05-28T11:10:18.779Z,939.31
2017-05-28T11:11:31.184Z,939.3
2017-05-28T11:12:44.095Z,939.3
2017-05-28T11:13:56.503Z,939.31
2017-05-28T11:15:08.426Z,939.29
2017-05-28T11:16:20.834Z,939.37
2017-05-28T11:17:33.763Z,939.34
2017-05-28T11:18:46.663Z,939.38
2017-05-28T11:19:59.762Z,939.39
2017-05-28T11:21:12.167Z,939.35
2017-05-28T11:22:24.094Z,939.37
2017-05-28T11:23:36.996Z,939.36
2017-05-28T11:24:49.408Z,939.36
2017-05-28T11:26:02.311Z,939.35
2017-05-28T11:27:14.729Z,939.38
2017-05-28T11:28:27.628Z,939.37
2017-05-28T11:29:40.039Z,939.37
2017-05-28T11:30:52.649Z,939.33
2017-05-28T11:32:05.564Z,939.38
2017-05-28T11:33:17.978Z,939.39
2017-05-28T11:34:30.398Z,939.41
2017-05-28T11:35:42.870Z,939.44
2017-05-28T11:36:55.777Z,939.47
2017-05-28T11:38:08.674Z,939.47
2017-05-28T11:39:20.592Z,939.53
2017-05-28T11:40:33.488Z,939.57
2017-05-28T11:41:46.097Z,939.57
2017-05-28T11:42:58.997Z,939.59
2017-05-28T11:44:11.411Z,939.65
2017-05-28T11:45:23.331Z,939.63
2017-05-28T11:46:36.226Z,939.63
2017-05-28T11:47:48.638Z,939.64
2017-05-28T11:49:01.540Z,939.68
2017-05-28T11:50:13.947Z,939.71
2017-05-28T11:51:26.848Z,939.72
2017-05-28T11:52:39.753Z,939.77
2017-05-28T11:53:52.675Z,939.8
2017-05-28T11:55:05.600Z,939.81
2017-05-28T11:56:17.541Z,939.87
2017-05-28T11:57:29.475Z,939.84
2017-05-28T11:58:42.451Z,939.84
2017-05-28T11:59:54.882Z,939.86
2017-05-28T12:01:07.859Z,939.91
2017-05-28T12:02:20.291Z,939.9
2017-05-28T12:03:32.923Z,939.94
2017-05-28T12:04:45.846Z,939.96
2017-05-28T12:05:58.279Z,939.98
2017-05-28T12:07:11.203Z,939.97
2017-05-28T12:08:24.124Z,939.97
2017-05-28T12:09:37.041Z,939.96
2017-05-28T12:10:49.959Z,939.97
2017-05-28T12:12:02.876Z,939.97
2017-05-28T12:13:15.308Z,939.98
2017-05-28T12:14:28.433Z,940
2017-05-28T12:15:41.366Z,940.01
2017-05-28T12:16:54.287Z,940.02
2017-05-28T12:18:06.717Z,939.99
2017-05-28T12:19:18.659Z,939.99
2017-05-28T12:20:31.089Z,940.02
2017-05-28T12:21:44.011Z,940.01
2017-05-28T12:22:56.937Z,940.05
2017-05-28T12:24:09.869Z,940.03
2017-05-28T12:25:21.584Z,940.02
2017-05-28T12:26:34.012Z,940.04
2017-05-28T12:27:46.488Z,940.1
2017-05-28T12:28:58.922Z,940.15
2017-05-28T12:30:12.036Z,940.19
2017-05-28T12:31:24.471Z,940.24
2017-05-28T12:32:37.400Z,940.31
2017-05-28T12:33:50.326Z,940.31
2017-05-28T12:35:03.245Z,940.3
2017-05-28T12:36:15.677Z,940.28
2017-05-28T12:37:28.598Z,940.28
2017-05-28T12:38:41.516Z,940.28
2017-05-28T12:39:53.458Z,940.27
2017-05-28T12:41:05.597Z,940.27
2017-05-28T12:42:18.031Z,940.26
2017-05-28T12:43:30.960Z,940.25
2017-05-28T12:44:43.962Z,940.23
2017-05-28T12:45:56.967Z,940.22
2017-05-28T12:47:09.971Z,940.21
2017-05-28T12:48:22.478Z,940.14
2017-05-28T12:49:35.478Z,940.19
2017-05-28T12:50:48.476Z,940.22
2017-05-28T12:52:01.479Z,940.18
2017-05-28T12:53:14.482Z,940.21
2017-05-28T12:54:26.989Z,940.22
2017-05-28T12:55:39.995Z,940.26
2017-05-28T12:56:52.999Z,940.26
2017-05-28T12:58:06.204Z,940.25
2017-05-28T12:59:19.205Z,940.25
2017-05-28T13:00:31.216Z,940.18
2017-05-28T13:01:43.719Z,940.18
2017-05-28T13:02:56.933Z,940.16
2017-05-28T13:04:09.936Z,940.19
2017-05-28T13:05:22.001Z,940.16
2017-05-28T13:06:35.000Z,940.17
2017-05-28T13:07:48.001Z,940.2
2017-05-28T13:09:00.708Z,940.18
2017-05-28T13:10:13.725Z,940.16
2017-05-28T13:11:26.732Z,940.16
2017-05-28T13:12:39.235Z,940.12
2017-05-28T13:13:52.440Z,940.11
2017-05-28T13:15:05.439Z,940.11
2017-05-28T13:16:17.996Z,940.09
2017-05-28T13:17:31.018Z,940.09
2017-05-28T13:18:43.519Z,940.09
2017-05-28T13:19:56.521Z,940.15
2017-05-28T13:21:08.594Z,940.22
2017-05-28T13:22:21.097Z,940.18
2017-05-28T13:23:33.106Z,940.23
2017-05-28T13:24:46.308Z,940.23
2017-05-28T13:25:59.313Z,940.22
2017-05-28T13:27:11.817Z,940.16
2017-05-28T13:28:24.324Z,940.14
2017-05-28T13:29:37.328Z,940.11
2017-05-28T13:30:50.536Z,940.04
2017-05-28T13:32:03.534Z,940.03
2017-05-28T13:33:15.547Z,940.03
2017-05-28T13:34:28.548Z,939.98
2017-05-28T13:35:41.546Z,939.98
2017-05-28T13:36:54.552Z,939.96
2017-05-28T13:38:07.552Z,939.9
2017-05-28T13:39:20.556Z,939.88
2017-05-28T13:40:33.558Z,939.87
2017-05-28T13:41:46.560Z,939.89
2017-05-28T13:42:59.560Z,939.87
2017-05-28T13:44:12.561Z,939.87
2017-05-28T13:45:25.558Z,939.82
2017-05-28T13:46:38.567Z,939.8
2017-05-28T13:47:51.571Z,939.84
2017-05-28T13:49:04.573Z,939.83
2017-05-28T13:50:16.581Z,939.85
2017-05-28T13:51:28.590Z,939.85
2017-05-28T13:52:41.789Z,939.81
2017-05-28T13:53:54.795Z,939.82
2017-05-28T13:55:07.301Z,939.81
2017-05-28T13:56:19.804Z,939.78
2017-05-28T13:57:32.806Z,939.77
2017-05-28T13:58:44.321Z,939.79
2017-05-28T13:59:57.335Z,939.78
2017-05-28T14:01:09.842Z,939.79
2017-05-28T14:02:21.852Z,939.77
2017-05-28T14:03:34.354Z,939.77
2017-05-28T14:04:47.366Z,939.74
2017-05-28T14:05:59.869Z,939.71
2017-05-28T14:07:12.360Z,939.71
2017-05-28T14:08:25.235Z,939.7
2017-05-28T14:09:37.623Z,939.67
2017-05-28T14:10:50.501Z,939.65
2017-05-28T14:12:02.894Z,939.7
2017-05-28T14:13:15.281Z,939.73
2017-05-28T14:14:28.359Z,939.74
2017-05-28T14:15:41.240Z,939.72
2017-05-28T14:16:54.106Z,939.71
2017-05-28T14:18:06.978Z,939.67
2017-05-28T14:19:19.363Z,939.63
2017-05-28T14:20:32.242Z,939.59
2017-05-28T14:21:45.115Z,939.54
2017-05-28T14:22:57.997Z,939.51
2017-05-28T14:24:10.871Z,939.45
2017-05-28T14:25:23.761Z,939.45
2017-05-28T14:26:35.661Z,939.46
2017-05-28T14:27:48.534Z,939.5
2017-05-28T14:29:01.408Z,939.53
2017-05-28T14:30:13.995Z,939.57
2017-05-28T14:31:26.868Z,939.56
2017-05-28T14:32:39.212Z,939.59
2017-05-28T14:33:52.058Z,939.57
2017-05-28T14:35:04.363Z,939.55
2017-05-28T14:36:17.158Z,939.46
2017-05-28T14:37:29.952Z,939.38
2017-05-28T14:38:42.254Z,939.34
2017-05-28T14:39:54.567Z,939.27
2017-05-28T14:41:07.361Z,939.27
2017-05-28T14:42:20.159Z,939.28
2017-05-28T14:43:32.472Z,939.25
2017-05-28T14:44:45.257Z,939.28
2017-05-28T14:45:58.052Z,939.28
2017-05-28T14:47:11.047Z,939.19
2017-05-28T14:48:22.877Z,939.16
2017-05-28T14:49:34.700Z,939.19
2017-05-28T14:50:47.501Z,939.12
2017-05-28T14:51:59.808Z,939.14
2017-05-28T14:53:12.594Z,939.06
2017-05-28T14:54:24.904Z,939.11
2017-05-28T14:55:37.698Z,939.09
2017-05-28T14:56:50.484Z,939.09
2017-05-28T14:58:03.475Z,939.11
2017-05-28T14:59:15.837Z,939.08
2017-05-28T15:00:27.660Z,939.09
2017-05-28T15:01:39.974Z,939.08
2017-05-28T15:02:52.486Z,939.12
2017-05-28T15:04:05.276Z,939.09
2017-05-28T15:05:17.094Z,939.07
2017-05-28T15:06:29.404Z,939.08
2017-05-28T15:07:41.724Z,939.13
2017-05-28T15:08:54.602Z,939.15
2017-05-28T15:10:07.471Z,939.14